Cosco Nagoya — 3ESJ8 — position and weather

sailwx.info

Track history (hours):
 
Tides and Currents Weather Stations Pressure Air Temp Water Temp Dewpoint Dewpoint Depression Visibility Wind Speed Wind Dir Waves Ship Positions

Cosco Nagoya

Last reported at 2014-Dec-14 15:05 UTC. Time now 2014-Dec-20 02:18 UTC.
Position N 34°43' W 075°28'.

Length 260 m; draft 10.6 m.

Type: Ship (hazmat cat A). MMSI: 370320000.

Date/timePositionNaut miles runAvg speedWind from/ knotsBaromVisibWave heightAir tempDewpointWater temp
2014-Dec-14 15:05N 34°43' W 075°28'288 6.6
2014-Dec-12 19:13N 39°20' W 073°54'1319.8
2014-Dec-12 18:32N 39°34' W 073°53'1919.7
2014-Dec-12 17:33N 39°53' W 073°52'1817.1
2014-Dec-12 16:32N 40°11' W 073°50'10 9.6
2014-Dec-12 15:28N 40°21' W 073°49'7 8.3
2014-Dec-12 14:33N 40°28' W 073°52'1211.9
2014-Dec-12 13:33N 40°37' W 074°03'5 5.4
2014-Dec-12 12:33N 40°40' W 074°08'1 0.9
2014-Dec-12 11:30N 40°41' W 074°09'0 0.0
2014-Dec-12 10:30N 40°41' W 074°09'0 0.0
2014-Dec-12 09:33N 40°41' W 074°09'0 0.0
2014-Dec-12 08:33N 40°41' W 074°09'0 0.0
2014-Dec-12 07:33N 40°41' W 074°09'0 0.0
2014-Dec-12 06:33N 40°41' W 074°09'0 0.0
2014-Dec-12 05:33N 40°41' W 074°09'0 0.0
2014-Dec-12 04:33N 40°41' W 074°09'0 0.0
2014-Dec-12 03:33N 40°41' W 074°09'0 0.0
2014-Dec-12 02:33N 40°41' W 074°09'0 0.0
2014-Dec-12 01:33N 40°41' W 074°09'0 0.0
2014-Dec-12 00:33N 40°41' W 074°09'0 0.0
2014-Dec-11 23:33N 40°41' W 074°09'0 0.0
2014-Dec-11 22:33N 40°41' W 074°09'0 0.0
2014-Dec-11 21:33N 40°41' W 074°09'0 0.0
2014-Dec-11 20:33N 40°41' W 074°09'0 0.0
2014-Dec-11 19:33N 40°41' W 074°09'0 0.0
2014-Dec-11 18:33N 40°41' W 074°09'0 0.0
2014-Dec-11 17:33N 40°41' W 074°09'0 0.0
2014-Dec-11 16:33N 40°41' W 074°09'0 0.0
2014-Dec-11 15:33N 40°41' W 074°09'0 0.0
2014-Dec-11 14:33N 40°41' W 074°09'0 0.0
2014-Dec-11 13:33N 40°41' W 074°09'0 0.0
2014-Dec-11 12:30N 40°41' W 074°09'0 0.0
2014-Dec-11 11:33N 40°41' W 074°09'0 0.0
2014-Dec-11 10:33N 40°41' W 074°09'0 0.0
2014-Dec-11 09:33N 40°41' W 074°09'0 0.0
2014-Dec-11 08:33N 40°41' W 074°09'0 0.0
2014-Dec-11 07:33N 40°41' W 074°09'0 0.0
2014-Dec-11 06:33N 40°41' W 074°09'0 0.0
2014-Dec-11 05:33N 40°41' W 074°09'0 0.0
2014-Dec-11 04:33N 40°41' W 074°09'0 0.0
2014-Dec-11 03:33N 40°41' W 074°09'0 0.0
2014-Dec-11 02:33N 40°41' W 074°09'0 0.0
2014-Dec-11 01:33N 40°41' W 074°09'0 0.0
2014-Dec-11 00:30N 40°41' W 074°09'0 0.0
2014-Dec-10 23:33N 40°41' W 074°09'0 0.0
2014-Dec-10 22:33N 40°41' W 074°09'0 0.0
2014-Dec-10 21:30N 40°41' W 074°09'0 0.0
2014-Dec-10 20:33N 40°41' W 074°09'2 1.9
2014-Dec-10 19:33N 40°39' W 074°09'5 5.1
2014-Dec-10 18:33N 40°37' W 074°03'1111.2
2014-Dec-10 17:33N 40°29' W 073°53'6 6.0
2014-Dec-10 16:33N 40°27' W 073°45'5711.4
2014-Dec-10 11:33N 40°31' W 072°30'1616.4
2014-Dec-10 10:33N 40°31' W 072°09'1716.5
2014-Dec-10 09:33N 40°32' W 071°47'1716.6
2014-Dec-10 08:33N 40°32' W 071°25'1716.7
2014-Dec-10 07:33N 40°32' W 071°03'1716.8
2014-Dec-10 06:33N 40°33' W 070°41'1716.8
2014-Dec-10 05:33N 40°34' W 070°19'1716.5
2014-Dec-10 04:33N 40°34' W 069°57'1615.7
2014-Dec-10 03:33N 40°35' W 069°37'1615.3
2014-Dec-10 02:29N 40°35' W 069°15'1515.8
2014-Dec-10 01:33N 40°36' W 068°56'  
Track history (hours):
 
Tides and Currents Weather Stations Pressure Air Temp Water Temp Dewpoint Dewpoint Depression Visibility Wind Speed Wind Dir Waves Ship Positions

Cosco Nagoya

Last reported at 2014-Dec-14 15:05 UTC. Time now 2014-Dec-20 02:18 UTC.
Position N 34°43' W 075°28'.

Length 260 m; draft 10.6 m.

Type: Ship (hazmat cat A). MMSI: 370320000.

Date/timePositionNaut miles runAvg speedWind from/ knotsBaromVisibWave heightAir tempDewpointWater temp
2014-Dec-14 15:05N 34°43' W 075°28'288 6.6
2014-Dec-12 19:13N 39°20' W 073°54'1319.8
2014-Dec-12 18:32N 39°34' W 073°53'1919.7
2014-Dec-12 17:33N 39°53' W 073°52'1817.1
2014-Dec-12 16:32N 40°11' W 073°50'10 9.6
2014-Dec-12 15:28N 40°21' W 073°49'7 8.3
2014-Dec-12 14:33N 40°28' W 073°52'1211.9
2014-Dec-12 13:33N 40°37' W 074°03'5 5.4
2014-Dec-12 12:33N 40°40' W 074°08'1 0.9
2014-Dec-12 11:30N 40°41' W 074°09'0 0.0
2014-Dec-12 10:30N 40°41' W 074°09'0 0.0
2014-Dec-12 09:33N 40°41' W 074°09'0 0.0
2014-Dec-12 08:33N 40°41' W 074°09'0 0.0
2014-Dec-12 07:33N 40°41' W 074°09'0 0.0
2014-Dec-12 06:33N 40°41' W 074°09'0 0.0
2014-Dec-12 05:33N 40°41' W 074°09'0 0.0
2014-Dec-12 04:33N 40°41' W 074°09'0 0.0
2014-Dec-12 03:33N 40°41' W 074°09'0 0.0
2014-Dec-12 02:33N 40°41' W 074°09'0 0.0
2014-Dec-12 01:33N 40°41' W 074°09'0 0.0
2014-Dec-12 00:33N 40°41' W 074°09'0 0.0
2014-Dec-11 23:33N 40°41' W 074°09'0 0.0
2014-Dec-11 22:33N 40°41' W 074°09'0 0.0
2014-Dec-11 21:33N 40°41' W 074°09'0 0.0
2014-Dec-11 20:33N 40°41' W 074°09'0 0.0
2014-Dec-11 19:33N 40°41' W 074°09'0 0.0
2014-Dec-11 18:33N 40°41' W 074°09'0 0.0
2014-Dec-11 17:33N 40°41' W 074°09'0 0.0
2014-Dec-11 16:33N 40°41' W 074°09'0 0.0
2014-Dec-11 15:33N 40°41' W 074°09'0 0.0
2014-Dec-11 14:33N 40°41' W 074°09'0 0.0
2014-Dec-11 13:33N 40°41' W 074°09'0 0.0
2014-Dec-11 12:30N 40°41' W 074°09'0 0.0
2014-Dec-11 11:33N 40°41' W 074°09'0 0.0
2014-Dec-11 10:33N 40°41' W 074°09'0 0.0
2014-Dec-11 09:33N 40°41' W 074°09'0 0.0
2014-Dec-11 08:33N 40°41' W 074°09'0 0.0
2014-Dec-11 07:33N 40°41' W 074°09'0 0.0
2014-Dec-11 06:33N 40°41' W 074°09'0 0.0
2014-Dec-11 05:33N 40°41' W 074°09'0 0.0
2014-Dec-11 04:33N 40°41' W 074°09'0 0.0
2014-Dec-11 03:33N 40°41' W 074°09'0 0.0
2014-Dec-11 02:33N 40°41' W 074°09'0 0.0
2014-Dec-11 01:33N 40°41' W 074°09'0 0.0
2014-Dec-11 00:30N 40°41' W 074°09'0 0.0
2014-Dec-10 23:33N 40°41' W 074°09'0 0.0
2014-Dec-10 22:33N 40°41' W 074°09'0 0.0
2014-Dec-10 21:30N 40°41' W 074°09'0 0.0
2014-Dec-10 20:33N 40°41' W 074°09'2 1.9
2014-Dec-10 19:33N 40°39' W 074°09'5 5.1
2014-Dec-10 18:33N 40°37' W 074°03'1111.2
2014-Dec-10 17:33N 40°29' W 073°53'6 6.0
2014-Dec-10 16:33N 40°27' W 073°45'5711.4
2014-Dec-10 11:33N 40°31' W 072°30'1616.4
2014-Dec-10 10:33N 40°31' W 072°09'1716.5
2014-Dec-10 09:33N 40°32' W 071°47'1716.6
2014-Dec-10 08:33N 40°32' W 071°25'1716.7
2014-Dec-10 07:33N 40°32' W 071°03'1716.8
2014-Dec-10 06:33N 40°33' W 070°41'1716.8
2014-Dec-10 05:33N 40°34' W 070°19'1716.5
2014-Dec-10 04:33N 40°34' W 069°57'1615.7
2014-Dec-10 03:33N 40°35' W 069°37'1615.3
2014-Dec-10 02:29N 40°35' W 069°15'1515.8
2014-Dec-10 01:33N 40°36' W 068°56'  

Dump ship's entire track history